Time;durP1;ratioP1;P1;durP2;ratioP2;P2;SDS_P1;SDS_P2;PMS_P1;PMS_P2;Temp;Humidity;BMP_temperature;BMP_pressure;BME280_temperature;BME280_humidity;BME280_pressure;Samples;Min_cycle;Max_cycle;Signal;HPM_P1;HPM_P2
2023/09/27 00:02:02;;;;;;;6.88;3.65;;;11.10;99.90;;;;;;5113873;27;20054;-77
2023/09/27 00:04:28;;;;;;;8.48;4.05;;;11.20;99.90;;;;;;5132198;27;20472;-77
2023/09/27 00:06:53;;;;;;;11.15;5.38;;;11.20;99.90;;;;;;5131774;27;20116;-78
2023/09/27 00:09:19;;;;;;;11.88;4.63;;;11.20;99.90;;;;;;5113685;27;20119;-78
2023/09/27 00:11:45;;;;;;;8.80;4.20;;;11.20;99.90;;;;;;5131188;27;20376;-77
2023/09/27 00:14:11;;;;;;;6.78;3.03;;;11.20;99.90;;;;;;5132074;27;20118;-77
2023/09/27 00:16:36;;;;;;;6.97;3.20;;;11.20;99.90;;;;;;5131377;27;20560;-78
2023/09/27 00:19:04;;;;;;;9.52;3.22;;;11.20;99.90;;;;;;5131862;27;20019;-78
2023/09/27 00:21:30;;;;;;;8.20;3.70;;;11.20;99.90;;;;;;5131627;27;20472;-78
2023/09/27 00:23:56;;;;;;;8.73;4.40;;;11.20;99.90;;;;;;5131513;27;20031;-78
2023/09/27 00:26:22;;;;;;;8.85;3.80;;;11.20;99.90;;;;;;5132147;27;20462;-78
2023/09/27 00:28:47;;;;;;;9.07;3.75;;;11.20;99.90;;;;;;5131697;27;20452;-78
2023/09/27 00:31:15;;;;;;;8.10;3.45;;;11.20;99.90;;;;;;5132193;27;20027;-78
2023/09/27 00:33:41;;;;;;;6.97;2.92;;;11.20;99.90;;;;;;5131140;27;20030;-79
2023/09/27 00:36:07;;;;;;;8.18;3.33;;;11.20;99.90;;;;;;5131929;27;20047;-78
2023/09/27 00:38:32;;;;;;;8.45;3.63;;;11.20;99.90;;;;;;5131614;27;20089;-78
2023/09/27 00:40:58;;;;;;;9.90;3.13;;;11.10;99.90;;;;;;5112597;28;20027;-78
2023/09/27 00:43:32;;;;;;;9.35;2.83;;;11.10;99.90;;;;;;5131918;27;20402;-78
2023/09/27 00:46:03;;;;;;;5.30;2.55;;;11.10;99.90;;;;;;5131115;27;20571;-78
2023/09/27 00:48:30;;;;;;;9.95;3.20;;;11.10;99.90;;;;;;5131278;27;20039;-76
2023/09/27 00:50:57;;;;;;;4.43;2.58;;;11.00;99.90;;;;;;5130943;28;20140;-78
2023/09/27 00:53:25;;;;;;;7.40;2.85;;;11.00;99.90;;;;;;5097041;27;20448;-77
2023/09/27 00:55:51;;;;;;;6.35;2.55;;;11.00;99.90;;;;;;5137522;27;20019;-77
2023/09/27 00:58:20;;;;;;;5.13;2.50;;;11.00;99.90;;;;;;5138034;27;20426;-77
2023/09/27 01:00:49;;;;;;;6.47;3.00;;;11.00;99.90;;;;;;5137797;27;20480;-77
2023/09/27 01:03:16;;;;;;;6.70;2.63;;;11.00;99.90;;;;;;5137673;27;20436;-78
2023/09/27 01:05:43;;;;;;;6.10;2.67;;;11.00;99.90;;;;;;5137604;27;20460;-78
2023/09/27 01:08:09;;;;;;;10.82;3.20;;;11.00;99.90;;;;;;5137517;27;20044;-78
2023/09/27 01:10:35;;;;;;;4.25;1.90;;;11.00;99.90;;;;;;5119877;27;20023;-78
2023/09/27 01:13:02;;;;;;;7.40;2.05;;;11.00;99.90;;;;;;5138001;27;20417;-78
2023/09/27 01:15:28;;;;;;;3.72;2.40;;;11.00;99.90;;;;;;5137807;27;20054;-77
2023/09/27 01:17:59;;;;;;;4.03;2.47;;;11.00;99.90;;;;;;5137389;27;20042;-77
2023/09/27 01:20:27;;;;;;;7.13;2.58;;;11.00;99.90;;;;;;5119608;27;20372;-77
2023/09/27 01:23:10;;;;;;;7.43;2.78;;;11.00;99.90;;;;;;5137287;27;20356;-77
2023/09/27 01:25:37;;;;;;;5.20;2.30;;;10.90;99.90;;;;;;5137682;27;20031;-78
2023/09/27 01:28:05;;;;;;;4.30;2.50;;;10.90;99.90;;;;;;5138006;27;20035;-78
2023/09/27 01:30:32;;;;;;;5.88;2.70;;;10.90;99.90;;;;;;5137877;27;20022;-78
2023/09/27 01:33:06;;;;;;;6.13;2.42;;;10.90;99.90;;;;;;5102163;27;20103;-78
2023/09/27 01:35:42;;;;;;;3.58;2.42;;;10.90;99.90;;;;;;5137708;27;20041;-78
2023/09/27 01:38:09;;;;;;;4.82;2.35;;;10.90;99.90;;;;;;5137820;27;20030;-78
2023/09/27 01:40:40;;;;;;;6.15;2.28;;;10.90;99.90;;;;;;5138410;27;20460;-78
2023/09/27 01:43:07;;;;;;;6.40;2.40;;;10.90;99.90;;;;;;5138041;27;20038;-78
2023/09/27 01:45:33;;;;;;;7.38;2.22;;;10.80;99.90;;;;;;5138047;27;20096;-77
2023/09/27 01:47:59;;;;;;;9.73;2.22;;;10.80;99.90;;;;;;5137156;27;20153;-77
2023/09/27 01:50:26;;;;;;;4.13;1.70;;;10.80;99.90;;;;;;5137796;27;20035;-78
2023/09/27 01:52:52;;;;;;;6.40;1.90;;;10.90;99.90;;;;;;5137577;27;20062;-78
2023/09/27 01:55:18;;;;;;;5.60;1.73;;;10.80;99.90;;;;;;5137601;27;20030;-77
2023/09/27 01:57:47;;;;;;;6.47;2.08;;;10.80;99.90;;;;;;5137298;27;20019;-79
2023/09/27 02:00:14;;;;;;;11.50;2.10;;;10.80;99.90;;;;;;5137784;27;20114;-78
2023/09/27 02:02:41;;;;;;;4.90;1.88;;;10.80;99.90;;;;;;5137340;27;20027;-79
2023/09/27 02:05:08;;;;;;;6.15;2.10;;;10.80;99.90;;;;;;5136089;27;20031;-78
2023/09/27 02:07:41;;;;;;;6.78;2.10;;;10.90;99.90;;;;;;5115768;27;20028;-77
2023/09/27 02:10:10;;;;;;;5.60;2.35;;;10.90;99.90;;;;;;5134010;27;20448;-78
2023/09/27 02:12:38;;;;;;;5.82;2.05;;;10.90;99.90;;;;;;5134043;27;20039;-78
2023/09/27 02:15:08;;;;;;;5.65;2.15;;;10.90;99.90;;;;;;5133974;27;20019;-77
2023/09/27 02:17:38;;;;;;;4.93;2.10;;;11.00;99.90;;;;;;5134189;27;20087;-77
2023/09/27 02:20:07;;;;;;;4.40;2.03;;;11.00;99.90;;;;;;5133621;27;20023;-78
2023/09/27 02:22:33;;;;;;;6.80;2.03;;;11.00;99.90;;;;;;5134039;27;20027;-76
2023/09/27 02:24:59;;;;;;;2.72;1.65;;;11.10;99.90;;;;;;5133034;27;20050;-77
2023/09/27 02:27:25;;;;;;;5.22;2.15;;;11.10;99.90;;;;;;5115080;27;20480;-77
2023/09/27 02:29:51;;;;;;;7.97;2.30;;;11.10;99.90;;;;;;5137680;27;20082;-77
2023/09/27 02:32:17;;;;;;;5.60;1.98;;;11.10;99.90;;;;;;5143956;27;20114;-77
2023/09/27 02:34:43;;;;;;;8.73;2.03;;;11.10;99.90;;;;;;5124771;27;20041;-79
2023/09/27 02:37:09;;;;;;;5.35;2.22;;;11.10;99.90;;;;;;5141610;27;20092;-78
2023/09/27 02:39:35;;;;;;;6.18;1.90;;;11.10;99.90;;;;;;5141152;27;20020;-76
2023/09/27 02:42:00;;;;;;;9.20;2.53;;;11.20;99.90;;;;;;5143182;27;20027;-78
2023/09/27 02:44:26;;;;;;;5.03;1.77;;;11.20;99.90;;;;;;5140129;27;20047;-78
2023/09/27 02:46:53;;;;;;;8.52;1.70;;;11.20;99.90;;;;;;5140580;27;20436;-77
2023/09/27 02:49:19;;;;;;;8.00;2.10;;;11.20;99.90;;;;;;5141129;27;20083;-77
2023/09/27 02:51:47;;;;;;;6.30;2.03;;;11.20;99.90;;;;;;5135711;27;20077;-78
2023/09/27 02:54:16;;;;;;;3.95;1.85;;;11.20;99.90;;;;;;5135038;27;20023;-78
2023/09/27 02:56:45;;;;;;;7.32;1.98;;;11.20;99.90;;;;;;5133703;27;20372;-78
2023/09/27 02:59:11;;;;;;;8.82;2.70;;;11.20;99.90;;;;;;5133892;27;20030;-76
2023/09/27 03:01:41;;;;;;;9.30;2.20;;;11.30;99.90;;;;;;5133664;27;20102;-77
2023/09/27 03:04:11;;;;;;;11.48;2.20;;;11.30;99.90;;;;;;5133029;27;20432;-77
2023/09/27 03:06:41;;;;;;;7.28;2.20;;;11.40;99.90;;;;;;5133343;27;20110;-78
2023/09/27 03:09:13;;;;;;;7.00;1.80;;;11.40;99.90;;;;;;5133253;27;20030;-78
2023/09/27 03:11:42;;;;;;;7.68;1.60;;;11.50;99.90;;;;;;5115124;27;20031;-78
2023/09/27 03:14:08;;;;;;;5.78;1.77;;;11.50;99.90;;;;;;5133241;27;20050;-78
2023/09/27 03:16:34;;;;;;;10.48;2.22;;;11.60;99.90;;;;;;5132761;27;20059;-77
2023/09/27 03:19:00;;;;;;;12.45;1.88;;;11.60;99.90;;;;;;5132548;27;20053;-76
2023/09/27 03:21:26;;;;;;;6.93;2.20;;;11.60;99.90;;;;;;5133003;27;20468;-78
2023/09/27 03:23:56;;;;;;;8.68;2.15;;;11.70;99.90;;;;;;5132349;27;20525;-79
2023/09/27 03:26:23;;;;;;;9.05;2.20;;;11.70;99.90;;;;;;5132898;27;20452;-78
2023/09/27 03:28:50;;;;;;;7.70;2.17;;;11.80;99.90;;;;;;5132405;27;20016;-78
2023/09/27 03:31:16;;;;;;;8.52;2.13;;;11.80;99.90;;;;;;5132815;27;20170;-77
2023/09/27 03:33:41;;;;;;;10.18;2.17;;;11.80;99.90;;;;;;5132925;27;20159;-78
2023/09/27 03:36:07;;;;;;;13.55;2.25;;;11.90;99.90;;;;;;5132204;27;20127;-77
2023/09/27 03:38:33;;;;;;;6.40;1.90;;;11.90;99.90;;;;;;5132946;27;20079;-78
2023/09/27 03:40:59;;;;;;;4.93;2.05;;;11.90;99.90;;;;;;5132273;27;20038;-78
2023/09/27 03:43:25;;;;;;;7.88;2.05;;;11.90;99.90;;;;;;5113977;27;20052;-78
2023/09/27 03:45:51;;;;;;;4.25;1.40;;;11.90;99.90;;;;;;5132458;27;20452;-78
2023/09/27 03:48:19;;;;;;;5.43;2.08;;;11.90;99.90;;;;;;5132558;27;20129;-78
2023/09/27 03:50:45;;;;;;;8.43;2.03;;;11.90;99.90;;;;;;5114898;27;20333;-78
2023/09/27 03:53:11;;;;;;;8.13;2.20;;;12.00;99.90;;;;;;5132082;27;20028;-78
2023/09/27 03:55:36;;;;;;;9.68;2.20;;;12.00;99.90;;;;;;5114052;27;20027;-78
2023/09/27 03:58:03;;;;;;;9.38;2.10;;;12.00;99.90;;;;;;5131757;27;20027;-78
2023/09/27 04:00:29;;;;;;;9.30;2.30;;;12.00;99.90;;;;;;5114024;27;20027;-78
2023/09/27 04:02:55;;;;;;;11.63;2.80;;;12.00;99.90;;;;;;5131984;27;20023;-78
2023/09/27 04:05:23;;;;;;;12.10;2.50;;;12.00;99.90;;;;;;5132433;27;20415;-77
2023/09/27 04:07:49;;;;;;;9.05;2.28;;;12.00;99.90;;;;;;5131798;27;20031;-79
2023/09/27 04:10:18;;;;;;;10.75;2.28;;;12.00;99.90;;;;;;5132072;27;20072;-78
2023/09/27 04:12:44;;;;;;;15.45;2.83;;;12.10;99.90;;;;;;5131696;27;20119;-78
2023/09/27 04:15:10;;;;;;;15.45;3.22;;;12.20;99.90;;;;;;5131440;27;20106;-77
2023/09/27 04:17:37;;;;;;;15.48;2.90;;;12.20;99.90;;;;;;5132105;27;20039;-78
2023/09/27 04:20:19;;;;;;;15.95;3.30;;;12.30;99.90;;;;;;5131940;27;20110;-78
2023/09/27 04:22:49;;;;;;;21.80;3.50;;;12.30;99.90;;;;;;5132065;27;20148;-78
2023/09/27 04:25:16;;;;;;;15.68;2.92;;;12.40;99.90;;;;;;5131828;27;20026;-77
2023/09/27 04:27:45;;;;;;;12.68;2.65;;;12.40;99.90;;;;;;5131518;27;20023;-77
2023/09/27 04:30:16;;;;;;;13.95;3.55;;;12.50;99.90;;;;;;5131274;27;20523;-76
2023/09/27 04:32:43;;;;;;;11.10;2.63;;;12.40;99.90;;;;;;5131967;27;20435;-77
2023/09/27 04:35:09;;;;;;;13.98;2.80;;;12.50;99.90;;;;;;5131160;27;20092;-77
2023/09/27 04:37:38;;;;;;;16.75;3.22;;;12.50;99.90;;;;;;5131804;27;20023;-78
2023/09/27 04:40:10;;;;;;;11.20;2.58;;;12.50;99.90;;;;;;5131517;27;20417;-77
2023/09/27 04:42:36;;;;;;;11.80;3.00;;;12.50;99.90;;;;;;5132067;27;20035;-78
2023/09/27 04:45:02;;;;;;;21.83;3.22;;;12.50;99.90;;;;;;5131285;27;20253;-78
2023/09/27 04:47:28;;;;;;;22.90;3.50;;;12.60;99.90;;;;;;5132160;27;20027;-77
2023/09/27 04:49:54;;;;;;;17.30;3.10;;;12.70;99.90;;;;;;5131468;27;20047;-78
2023/09/27 04:52:20;;;;;;;22.05;3.35;;;12.80;99.90;;;;;;5113730;28;20448;-77
2023/09/27 04:54:46;;;;;;;26.52;3.95;;;12.90;99.90;;;;;;5113600;28;20027;-76
2023/09/27 04:57:12;;;;;;;23.45;3.75;;;13.10;99.90;;;;;;5131029;28;20046;-76
2023/09/27 04:59:38;;;;;;;20.65;3.88;;;13.10;99.90;;;;;;5132272;28;20106;-77
2023/09/27 05:02:03;;;;;;;21.23;4.63;;;13.20;99.90;;;;;;5131641;28;20031;-77
2023/09/27 05:04:29;;;;;;;21.08;2.80;;;13.20;99.90;;;;;;5131984;28;20387;-77
2023/09/27 05:06:55;;;;;;;17.48;3.38;;;13.30;99.90;;;;;;5130909;28;20029;-78
2023/09/27 05:09:21;;;;;;;12.90;2.70;;;13.30;99.90;;;;;;5131731;28;20062;-77
2023/09/27 05:11:46;;;;;;;17.35;3.85;;;13.20;99.90;;;;;;5131648;28;20154;-78
2023/09/27 05:14:13;;;;;;;28.42;3.88;;;13.20;99.90;;;;;;5112384;28;20024;-76
2023/09/27 05:16:38;;;;;;;24.80;3.50;;;13.20;99.90;;;;;;5131676;28;20033;-77
2023/09/27 05:19:04;;;;;;;12.32;3.20;;;13.20;99.90;;;;;;5130610;28;20102;-77
2023/09/27 05:21:30;;;;;;;18.75;3.30;;;13.20;99.90;;;;;;5131519;28;20027;-78
2023/09/27 05:23:55;;;;;;;18.15;3.53;;;13.20;99.90;;;;;;5112015;28;20023;-78
2023/09/27 05:26:21;;;;;;;17.23;3.33;;;13.20;99.90;;;;;;5131471;28;20019;-78
2023/09/27 05:28:47;;;;;;;15.07;3.30;;;13.20;99.90;;;;;;5131293;28;20136;-78
2023/09/27 05:31:13;;;;;;;18.40;3.75;;;13.20;99.90;;;;;;5112340;28;20208;-79
2023/09/27 05:33:38;;;;;;;19.30;3.95;;;13.30;99.90;;;;;;5131358;28;20126;-79
2023/09/27 05:36:05;;;;;;;19.42;3.70;;;13.30;99.90;;;;;;5130796;28;20027;-78
2023/09/27 05:38:31;;;;;;;23.67;3.60;;;13.30;99.90;;;;;;5131096;28;20027;-79
2023/09/27 05:40:56;;;;;;;23.67;4.47;;;13.40;99.90;;;;;;5131977;27;20118;-80
2023/09/27 05:43:22;;;;;;;22.63;4.13;;;13.40;99.90;;;;;;5134824;27;20098;-79
2023/09/27 05:45:48;;;;;;;21.58;4.10;;;13.50;99.90;;;;;;5135084;27;20030;-79
2023/09/27 05:48:14;;;;;;;20.80;3.53;;;13.50;99.90;;;;;;5115656;27;20078;-78
2023/09/27 05:50:44;;;;;;;17.45;3.65;;;13.60;99.90;;;;;;5135337;27;20037;-79
2023/09/27 05:53:11;;;;;;;19.48;3.75;;;13.60;99.90;;;;;;5134057;27;20118;-79
2023/09/27 05:55:37;;;;;;;14.82;3.47;;;13.70;99.90;;;;;;5116327;27;20023;-79
2023/09/27 05:58:03;;;;;;;15.73;3.22;;;13.70;99.90;;;;;;5133722;27;20031;-78
2023/09/27 06:00:37;;;;;;;19.00;3.63;;;13.70;99.90;;;;;;5134838;27;20019;-78
2023/09/27 06:03:07;;;;;;;17.73;3.15;;;13.70;99.90;;;;;;5134128;27;20075;-78
2023/09/27 06:05:33;;;;;;;12.30;3.00;;;13.80;99.90;;;;;;5134293;27;20027;-78
2023/09/27 06:07:59;;;;;;;16.13;3.28;;;13.90;99.90;;;;;;5133916;27;20019;-79
2023/09/27 06:10:25;;;;;;;13.20;2.88;;;13.80;99.90;;;;;;5134024;27;20027;-78
2023/09/27 06:12:51;;;;;;;15.75;3.38;;;13.90;99.90;;;;;;5133832;27;20054;-79
2023/09/27 06:15:17;;;;;;;17.60;3.53;;;13.90;99.90;;;;;;5133820;27;20616;-78
2023/09/27 06:17:43;;;;;;;17.33;3.45;;;13.90;99.90;;;;;;5134437;27;20148;-79
2023/09/27 06:20:19;;;;;;;18.98;3.72;;;14.00;99.90;;;;;;5115302;27;20499;-79
2023/09/27 06:22:49;;;;;;;21.88;4.00;;;13.90;99.90;;;;;;5134087;27;20023;-79
2023/09/27 06:25:19;;;;;;;17.15;3.20;;;14.00;99.90;;;;;;5114808;27;20050;-78
2023/09/27 06:27:46;;;;;;;16.55;3.20;;;14.00;99.90;;;;;;5134074;27;20058;-79
2023/09/27 06:30:12;;;;;;;14.88;3.63;;;14.10;99.90;;;;;;5133561;27;20034;-78
2023/09/27 06:32:38;;;;;;;16.30;3.40;;;14.00;99.90;;;;;;5134087;27;20367;-78
2023/09/27 06:35:12;;;;;;;15.30;3.80;;;14.00;99.90;;;;;;5133508;27;20027;-79
2023/09/27 06:37:40;;;;;;;14.68;3.35;;;14.10;99.90;;;;;;5133720;27;20027;-78
2023/09/27 06:40:09;;;;;;;15.20;3.42;;;14.10;99.90;;;;;;5132906;27;20347;-78
2023/09/27 06:42:36;;;;;;;12.82;3.63;;;14.20;99.90;;;;;;5134005;27;20103;-80
2023/09/27 06:45:02;;;;;;;23.17;3.47;;;14.30;99.90;;;;;;5133051;27;20019;-80
2023/09/27 06:47:28;;;;;;;18.38;3.72;;;14.30;99.90;;;;;;5133654;27;20023;-78
2023/09/27 06:49:55;;;;;;;19.70;4.00;;;14.30;99.90;;;;;;5133981;27;20134;-77
2023/09/27 06:52:21;;;;;;;17.42;3.92;;;14.30;99.90;;;;;;5132565;27;20043;-79
2023/09/27 06:54:47;;;;;;;15.20;3.72;;;14.30;99.90;;;;;;5133588;27;20027;-77
2023/09/27 06:57:13;;;;;;;17.33;3.50;;;14.30;99.90;;;;;;5132730;27;20034;-78
2023/09/27 06:59:39;;;;;;;15.13;3.72;;;14.40;99.90;;;;;;5133073;27;20432;-79
2023/09/27 07:02:06;;;;;;;13.80;3.47;;;14.30;99.90;;;;;;5132813;27;20047;-79
2023/09/27 07:04:31;;;;;;;18.25;3.17;;;14.30;99.90;;;;;;5133349;27;20028;-79
2023/09/27 07:06:57;;;;;;;13.20;2.83;;;14.30;99.90;;;;;;5133340;27;20023;-79
2023/09/27 07:09:23;;;;;;;15.85;3.28;;;14.30;99.90;;;;;;5133006;27;20051;-80
2023/09/27 07:11:48;;;;;;;17.90;3.38;;;14.30;99.90;;;;;;5133031;27;20062;-79
2023/09/27 07:14:17;;;;;;;23.48;3.60;;;14.30;99.90;;;;;;5132189;27;20472;-79
2023/09/27 07:16:43;;;;;;;20.63;3.47;;;14.30;99.90;;;;;;5132593;27;20098;-79
2023/09/27 07:19:09;;;;;;;20.65;3.92;;;14.40;99.90;;;;;;5132358;27;20464;-77
2023/09/27 07:21:35;;;;;;;19.25;3.75;;;14.40;99.90;;;;;;5132929;27;20031;-77
2023/09/27 07:24:01;;;;;;;16.45;2.53;;;14.50;99.90;;;;;;5132759;27;20023;-80
2023/09/27 07:26:27;;;;;;;12.73;2.88;;;14.50;99.90;;;;;;5132370;27;20065;-78
2023/09/27 07:28:52;;;;;;;15.93;3.22;;;14.50;99.90;;;;;;5132723;27;20365;-79
2023/09/27 07:31:19;;;;;;;19.13;4.03;;;14.60;99.90;;;;;;5131956;27;20034;-79
2023/09/27 07:33:46;;;;;;;14.68;4.28;;;14.60;99.90;;;;;;5132918;27;20489;-78
2023/09/27 07:36:12;;;;;;;22.90;4.82;;;14.60;99.90;;;;;;5132202;27;20019;-80
2023/09/27 07:38:39;;;;;;;28.33;4.88;;;14.60;99.90;;;;;;5132922;27;20133;-79
2023/09/27 07:41:08;;;;;;;20.77;4.25;;;14.60;99.90;;;;;;5113547;27;20027;-80
2023/09/27 07:43:34;;;;;;;17.85;4.05;;;14.70;99.90;;;;;;5132594;27;20117;-79
2023/09/27 07:46:06;;;;;;;23.27;4.45;;;14.70;99.90;;;;;;5132240;27;20110;-80
2023/09/27 07:48:39;;;;;;;20.17;4.60;;;14.60;99.90;;;;;;5132605;27;20062;-79
2023/09/27 07:51:15;;;;;;;19.92;3.85;;;14.60;99.90;;;;;;5132626;27;20077;-81
2023/09/27 07:53:41;;;;;;;26.20;4.07;;;14.60;99.90;;;;;;5132503;27;20035;-80
2023/09/27 07:56:09;;;;;;;21.40;4.20;;;14.70;99.90;;;;;;5131789;27;20049;-79
2023/09/27 07:58:36;;;;;;;19.58;4.65;;;14.70;99.90;;;;;;5113996;27;20404;-79
2023/09/27 08:01:03;;;;;;;23.98;4.35;;;14.60;99.90;;;;;;5134822;27;20034;-78
2023/09/27 08:03:29;;;;;;;16.65;4.90;;;14.60;99.90;;;;;;5131227;27;20022;-78
2023/09/27 08:05:54;;;;;;;20.75;4.60;;;14.60;99.90;;;;;;5132351;27;20045;-79
2023/09/27 08:08:21;;;;;;;19.20;4.50;;;14.60;99.90;;;;;;5131467;27;20015;-79
2023/09/27 08:10:49;;;;;;;26.65;4.80;;;14.60;99.90;;;;;;5131553;27;20019;-79
2023/09/27 08:13:18;;;;;;;21.17;4.68;;;14.60;99.90;;;;;;5131369;27;20042;-80
2023/09/27 08:15:48;;;;;;;23.15;5.05;;;14.60;99.90;;;;;;5131855;27;20111;-77
2023/09/27 08:18:15;;;;;;;26.65;4.60;;;14.60;99.90;;;;;;5131204;27;20027;-77
2023/09/27 08:20:41;;;;;;;22.67;4.50;;;14.60;99.90;;;;;;5112911;27;20031;-77
2023/09/27 08:23:07;;;;;;;23.88;4.55;;;14.60;99.90;;;;;;5112700;27;20043;-78
2023/09/27 08:25:32;;;;;;;25.33;4.65;;;14.70;99.90;;;;;;5131882;27;20495;-76
2023/09/27 08:27:59;;;;;;;28.45;4.75;;;14.60;99.90;;;;;;5134719;27;20034;-77
2023/09/27 08:30:24;;;;;;;28.58;5.38;;;14.70;99.90;;;;;;5134519;27;20882;-77
2023/09/27 08:32:51;;;;;;;24.48;5.03;;;14.70;99.90;;;;;;5136695;27;20027;-77
2023/09/27 08:35:17;;;;;;;18.83;4.45;;;14.60;99.90;;;;;;5135600;27;20034;-79
2023/09/27 08:37:42;;;;;;;23.27;5.15;;;14.60;99.90;;;;;;5137184;27;20023;-78
2023/09/27 08:40:12;;;;;;;17.35;4.63;;;14.60;99.90;;;;;;5136494;27;20030;-78
2023/09/27 08:42:39;;;;;;;28.15;5.57;;;14.70;99.90;;;;;;5135521;27;20042;-77
2023/09/27 08:45:13;;;;;;;17.80;3.90;;;14.60;99.90;;;;;;5132903;27;20023;-77
2023/09/27 08:47:44;;;;;;;19.67;4.50;;;14.70;99.90;;;;;;5131136;27;20106;-77
2023/09/27 08:50:14;;;;;;;22.25;5.15;;;14.60;99.90;;;;;;5130824;27;20537;-78
2023/09/27 08:52:49;;;;;;;21.17;4.10;;;14.60;99.90;;;;;;5131633;27;20448;-77
2023/09/27 08:55:17;;;;;;;22.38;4.28;;;14.60;99.90;;;;;;5130837;28;20091;-77
2023/09/27 08:57:48;;;;;;;15.13;4.20;;;14.60;99.90;;;;;;5131490;28;20477;-76
2023/09/27 09:00:16;;;;;;;21.65;5.32;;;14.60;99.90;;;;;;5130711;28;20106;-76
2023/09/27 09:02:48;;;;;;;27.73;5.72;;;14.60;99.90;;;;;;5131585;28;20088;-76
2023/09/27 09:05:15;;;;;;;27.60;5.10;;;14.60;99.90;;;;;;5130952;28;20027;-77
2023/09/27 09:07:42;;;;;;;24.77;4.93;;;14.60;99.90;;;;;;5131231;28;20050;-75
2023/09/27 09:10:13;;;;;;;23.83;5.63;;;14.60;99.90;;;;;;5131353;28;20337;-78
2023/09/27 09:12:41;;;;;;;23.52;4.68;;;14.60;99.90;;;;;;5131336;28;20031;-77
2023/09/27 09:15:14;;;;;;;22.95;5.30;;;14.60;99.90;;;;;;5132831;27;20031;-77
2023/09/27 09:17:42;;;;;;;;;;;14.60;99.90;;;;;;5135874;27;20030;-76
2023/09/27 09:20:16;;;;;;;15.05;4.57;;;14.60;99.90;;;;;;5135296;27;19952;-79
2023/09/27 09:22:43;;;;;;;27.83;5.15;;;14.70;99.90;;;;;;5116842;27;20110;-77
2023/09/27 09:25:08;;;;;;;21.23;5.85;;;14.70;99.90;;;;;;5134826;27;20465;-79
2023/09/27 09:27:34;;;;;;;21.00;4.97;;;14.70;99.90;;;;;;5134317;27;20031;-76
2023/09/27 09:30:02;;;;;;;28.65;5.18;;;14.80;99.90;;;;;;5134811;27;20171;-77
2023/09/27 09:32:29;;;;;;;21.70;5.25;;;14.80;99.90;;;;;;5134310;27;20035;-77
2023/09/27 09:34:55;;;;;;;20.38;5.38;;;14.70;99.90;;;;;;5135031;27;20528;-76
2023/09/27 09:37:29;;;;;;;27.75;5.03;;;14.80;99.90;;;;;;5134233;27;20106;-77
2023/09/27 09:40:15;;;;;;;23.48;5.20;;;14.80;99.90;;;;;;5135259;27;20026;-76
2023/09/27 09:42:47;;;;;;;24.80;4.97;;;14.80;99.90;;;;;;5135073;27;20027;-77
2023/09/27 09:45:13;;;;;;;27.05;5.55;;;14.80;99.90;;;;;;5134072;27;20048;-78
2023/09/27 09:47:43;;;;;;;21.85;5.32;;;14.90;99.90;;;;;;5134639;27;20057;-77
2023/09/27 09:50:16;;;;;;;28.98;5.88;;;14.80;99.90;;;;;;5135210;27;20495;-77
2023/09/27 09:52:46;;;;;;;26.77;5.38;;;14.90;99.90;;;;;;5116013;27;20028;-76
2023/09/27 09:55:19;;;;;;;30.20;6.72;;;14.80;99.90;;;;;;5115913;27;20463;-79
2023/09/27 09:57:46;;;;;;;25.48;5.55;;;14.90;99.90;;;;;;5134494;27;20076;-77
2023/09/27 10:00:16;;;;;;;24.80;5.25;;;14.90;99.90;;;;;;5134035;27;20019;-80
2023/09/27 10:02:49;;;;;;;24.25;6.30;;;15.00;99.90;;;;;;5134796;27;20027;-85
2023/09/27 10:05:28;;;;;;;37.83;6.63;;;14.90;99.90;;;;;;5116820;27;20328;-88
2023/09/27 10:07:57;;;;;;;33.47;6.93;;;14.90;99.90;;;;;;5116851;27;20451;-90
2023/09/27 10:10:34;;;;;;;25.42;6.10;;;14.90;99.90;;;;;;5116910;27;20015;-91
2023/09/27 10:13:04;;;;;;;19.73;4.88;;;14.90;99.90;;;;;;5117398;27;20034;-90
2023/09/27 10:15:33;;;;;;;31.10;5.45;;;14.80;99.90;;;;;;5116584;27;20080;-85
2023/09/27 10:18:21;;;;;;;23.25;5.68;;;14.90;99.90;;;;;;5135716;27;20390;-88
2023/09/27 10:21:07;;;;;;;16.90;4.82;;;14.90;99.90;;;;;;5135262;27;20333;-90
2023/09/27 10:23:53;;;;;;;19.77;4.20;;;14.80;99.90;;;;;;5114816;27;20483;-80
2023/09/27 10:26:36;;;;;;;15.60;4.60;;;14.90;99.90;;;;;;5121291;27;20046;-79
2023/09/27 10:29:12;;;;;;;18.42;4.20;;;14.90;99.90;;;;;;5133976;27;20019;-80
2023/09/27 10:31:57;;;;;;;24.05;5.35;;;14.90;99.90;;;;;;5133149;27;20027;-80
2023/09/27 10:34:29;;;;;;;31.08;4.90;;;15.00;99.90;;;;;;5132640;27;20034;-80
2023/09/27 10:37:00;;;;;;;23.77;4.40;;;15.10;99.90;;;;;;5133662;27;20102;-84
2023/09/27 10:39:26;;;;;;;20.83;4.90;;;15.00;99.90;;;;;;5115024;27;20126;-83
2023/09/27 10:41:53;;;;;;;24.38;4.47;;;15.10;99.90;;;;;;5114284;27;20027;-79
2023/09/27 10:44:35;;;;;;;23.80;4.43;;;15.20;99.90;;;;;;5132569;27;20062;-78
2023/09/27 10:47:04;;;;;;;17.08;4.30;;;15.20;99.90;;;;;;5132938;27;20100;-78
2023/09/27 10:49:40;;;;;;;20.25;3.80;;;15.30;99.90;;;;;;5132482;27;20047;-78
2023/09/27 10:52:18;;;;;;;17.70;4.00;;;15.30;99.90;;;;;;5133400;27;20035;-77
2023/09/27 10:54:45;;;;;;;9.40;2.38;;;15.40;99.90;;;;;;5114284;27;20110;-78
2023/09/27 10:57:12;;;;;;;9.00;2.47;;;15.30;99.90;;;;;;5132824;27;20102;-77
2023/09/27 10:59:38;;;;;;;6.07;1.90;;;15.40;99.90;;;;;;5132534;27;20023;-77
2023/09/27 11:02:03;;;;;;;9.10;2.58;;;15.50;99.90;;;;;;5132860;27;20473;-77
2023/09/27 11:04:30;;;;;;;8.93;2.20;;;15.50;99.90;;;;;;5132267;27;20023;-77
2023/09/27 11:06:57;;;;;;;12.15;2.17;;;15.50;99.90;;;;;;5133290;27;20050;-87
2023/09/27 11:09:23;;;;;;;8.57;2.28;;;15.60;99.90;;;;;;5113804;27;20083;-80
2023/09/27 11:11:54;;;;;;;7.95;2.30;;;15.60;99.90;;;;;;5132619;27;20076;-78
2023/09/27 11:14:32;;;;;;;9.35;2.70;;;15.60;99.90;;;;;;5132189;27;20044;-79
2023/09/27 11:17:23;;;;;;;7.63;2.30;;;15.60;99.90;;;;;;5132618;27;20034;-75
2023/09/27 11:19:50;;;;;;;11.65;2.30;;;15.60;99.90;;;;;;5132403;27;20030;-77
2023/09/27 11:22:29;;;;;;;8.88;2.03;;;15.60;99.90;;;;;;5132342;27;20050;-80
2023/09/27 11:24:55;;;;;;;8.82;1.65;;;15.60;99.90;;;;;;5132270;27;20031;-79
2023/09/27 11:27:22;;;;;;;4.88;1.63;;;15.70;99.90;;;;;;5131934;27;20023;-78
2023/09/27 11:29:54;;;;;;;5.63;2.30;;;15.70;99.90;;;;;;5133060;27;20384;-84
2023/09/27 11:32:21;;;;;;;5.28;1.50;;;15.80;99.90;;;;;;5131711;27;20038;-78
2023/09/27 11:34:57;;;;;;;4.63;1.73;;;15.80;99.90;;;;;;5132191;27;20034;-78
2023/09/27 11:37:24;;;;;;;4.15;1.50;;;15.90;99.90;;;;;;5131059;27;20023;-78
2023/09/27 11:39:52;;;;;;;4.18;1.50;;;15.90;99.90;;;;;;5130941;27;20031;-78
2023/09/27 11:42:22;;;;;;;4.45;1.50;;;15.90;99.90;;;;;;5132072;27;20069;-78
2023/09/27 11:45:08;;;;;;;7.38;2.03;;;15.90;99.90;;;;;;5132617;27;20054;-77
2023/09/27 11:47:49;;;;;;;7.03;2.40;;;16.00;99.90;;;;;;5131930;27;20073;-77
2023/09/27 11:50:17;;;;;;;11.57;2.97;;;16.00;99.90;;;;;;5132737;27;20126;-79
2023/09/27 11:52:46;;;;;;;10.13;2.53;;;15.90;99.90;;;;;;5132335;27;20038;-79
2023/09/27 11:55:13;;;;;;;9.63;2.53;;;15.90;99.90;;;;;;5132616;27;20027;-81
2023/09/27 11:57:40;;;;;;;10.05;2.10;;;15.90;99.90;;;;;;5133190;27;20027;-81
2023/09/27 12:00:08;;;;;;;6.63;2.28;;;15.90;99.90;;;;;;5113473;27;20325;-79
2023/09/27 12:02:35;;;;;;;11.55;3.10;;;15.90;99.90;;;;;;5131799;27;20039;-77
2023/09/27 12:05:01;;;;;;;8.82;2.55;;;16.10;99.90;;;;;;5131996;27;20023;-77
2023/09/27 12:07:27;;;;;;;12.43;3.50;;;16.20;99.90;;;;;;5131505;27;20034;-78
2023/09/27 12:09:54;;;;;;;12.90;3.75;;;16.20;99.90;;;;;;5132154;27;20405;-77
2023/09/27 12:12:20;;;;;;;14.98;3.13;;;16.20;99.90;;;;;;5131411;27;20031;-79
2023/09/27 12:14:45;;;;;;;8.68;3.03;;;16.20;99.90;;;;;;5132037;27;20027;-78
2023/09/27 12:17:12;;;;;;;15.07;3.13;;;16.20;99.90;;;;;;5132024;27;20015;-77
2023/09/27 12:19:38;;;;;;;10.18;2.90;;;16.30;99.90;;;;;;5112475;27;20108;-79
2023/09/27 12:22:04;;;;;;;9.93;3.00;;;16.40;99.90;;;;;;5132088;27;20416;-77
2023/09/27 12:24:30;;;;;;;18.33;3.00;;;16.40;99.90;;;;;;5131454;27;20046;-78
2023/09/27 12:26:56;;;;;;;14.20;3.33;;;16.40;99.90;;;;;;5131885;27;20031;-78
2023/09/27 12:29:22;;;;;;;13.57;3.25;;;16.50;99.90;;;;;;5131657;27;20099;-80
2023/09/27 12:31:48;;;;;;;12.02;3.42;;;16.60;99.90;;;;;;5113254;27;20547;-78
2023/09/27 12:34:14;;;;;;;14.75;3.33;;;16.60;99.90;;;;;;5113095;27;20027;-80
2023/09/27 12:36:39;;;;;;;11.57;3.30;;;16.60;99.90;;;;;;5131543;27;20020;-83
2023/09/27 12:39:05;;;;;;;16.05;3.47;;;16.50;99.90;;;;;;5113854;27;20047;-80
2023/09/27 12:41:31;;;;;;;11.30;2.83;;;16.50;99.90;;;;;;5130902;27;20098;-79
2023/09/27 12:43:56;;;;;;;7.32;2.38;;;16.70;99.90;;;;;;5131510;27;20388;-77
2023/09/27 12:46:23;;;;;;;11.50;3.35;;;16.80;99.90;;;;;;5130825;27;20024;-79